Time;durP1;ratioP1;P1;durP2;ratioP2;P2;SDS_P1;SDS_P2;PMS_P1;PMS_P2;Temp;Humidity;BMP_temperature;BMP_pressure;BME280_temperature;BME280_humidity;BME280_pressure;Samples;Min_cycle;Max_cycle;Signal;HPM_P1;HPM_P2
2022/06/19 00:00:24;;;;;;;2.27;1.40;;;23.90;59.20;24.50;96336.00;;;;5093399;28;20215;-86
2022/06/19 00:02:52;;;;;;;2.80;1.50;;;23.90;59.30;24.50;96331.00;;;;5073611;28;20206;-86
2022/06/19 00:05:21;;;;;;;2.27;1.53;;;23.90;59.30;24.50;96327.00;;;;5072946;28;20196;-85
2022/06/19 00:07:48;;;;;;;1.43;1.33;;;23.80;59.20;24.40;96331.00;;;;5085883;28;20251;-86
2022/06/19 00:10:16;;;;;;;2.20;1.53;;;23.80;59.20;24.40;96332.00;;;;5091432;28;20198;-85
2022/06/19 00:12:44;;;;;;;2.57;2.00;;;23.80;59.20;24.30;96334.00;;;;5093103;28;20194;-85
2022/06/19 00:15:12;;;;;;;2.43;1.40;;;23.70;59.30;24.30;96335.00;;;;5092045;28;20207;-85
2022/06/19 00:17:39;;;;;;;1.60;1.50;;;23.70;59.50;24.20;96327.00;;;;5091820;28;20656;-86
2022/06/19 00:20:15;;;;;;;2.20;1.53;;;23.60;59.60;24.20;96327.00;;;;5092035;28;20208;-86
2022/06/19 00:22:44;;;;;;;1.80;1.70;;;23.50;59.70;24.10;96312.00;;;;5092123;28;20227;-86
2022/06/19 00:25:11;;;;;;;2.67;1.60;;;23.50;59.80;24.10;96307.00;;;;5095835;28;20206;-86
2022/06/19 00:27:41;;;;;;;1.57;1.47;;;23.50;59.90;24.00;96304.00;;;;5096551;28;20648;-86
2022/06/19 00:30:12;;;;;;;3.00;1.40;;;23.40;59.80;24.00;96300.00;;;;5095850;28;20204;-86
2022/06/19 00:32:42;;;;;;;1.63;1.30;;;23.40;59.90;24.00;96296.00;;;;5096115;28;20203;-85
2022/06/19 00:35:10;;;;;;;2.40;1.30;;;23.40;59.90;24.00;96285.00;;;;5095653;28;20195;-85
2022/06/19 00:37:37;;;;;;;2.10;1.50;;;23.30;59.80;23.90;96282.00;;;;5093572;28;20610;-86
2022/06/19 00:40:11;;;;;;;1.63;1.53;;;23.30;59.80;23.90;96279.00;;;;5096112;28;20656;-86
2022/06/19 00:42:38;;;;;;;1.50;1.37;;;23.30;60.00;23.90;96281.00;;;;5094208;28;20211;-85
2022/06/19 00:45:07;;;;;;;1.70;1.30;;;23.20;59.90;23.80;96275.00;;;;5093677;28;20211;-85
2022/06/19 00:47:43;;;;;;;2.20;1.50;;;23.20;60.10;23.80;96265.00;;;;5093593;28;20245;-85
2022/06/19 00:50:28;;;;;;;2.47;1.70;;;23.20;60.20;23.80;96253.00;;;;5093811;28;20187;-85
2022/06/19 00:52:56;;;;;;;1.37;1.27;;;23.20;60.50;23.80;96250.00;;;;5093358;28;20221;-85
2022/06/19 00:55:29;;;;;;;3.50;1.60;;;23.10;60.10;23.70;96245.00;;;;5093953;28;20231;-85
2022/06/19 00:58:05;;;;;;;3.00;1.47;;;23.10;60.10;23.70;96248.00;;;;5094683;28;20215;-85
2022/06/19 01:00:34;;;;;;;2.43;1.63;;;23.00;60.10;23.60;96243.00;;;;5095918;28;20234;-85
2022/06/19 01:03:09;;;;;;;2.07;1.30;;;23.00;60.00;23.60;96232.00;;;;5095873;28;20233;-86
2022/06/19 01:05:41;;;;;;;1.37;1.27;;;22.90;60.20;23.50;96237.00;;;;5095660;28;20268;-85
2022/06/19 01:08:11;;;;;;;2.67;1.83;;;22.90;60.20;23.40;96222.00;;;;5096400;28;20215;-85
2022/06/19 01:10:45;;;;;;;1.63;1.53;;;22.90;60.20;23.40;96222.00;;;;5095814;28;20199;-85
2022/06/19 01:13:16;;;;;;;1.40;1.30;;;22.80;60.40;23.40;96216.00;;;;5096220;28;20206;-85
2022/06/19 01:15:47;;;;;;;1.73;1.50;;;22.80;60.30;23.30;96216.00;;;;5096342;28;20266;-84
2022/06/19 01:18:15;;;;;;;2.23;1.40;;;22.70;60.30;23.30;96213.00;;;;5095572;28;20659;-84
2022/06/19 01:20:43;;;;;;;2.93;1.47;;;22.60;60.30;23.20;96221.00;;;;5096031;28;20249;-85
2022/06/19 01:23:22;;;;;;;3.90;1.57;;;22.60;60.50;23.20;96213.00;;;;5095980;28;20248;-85
2022/06/19 01:25:53;;;;;;;1.93;1.50;;;22.60;60.80;23.20;96198.00;;;;5096036;28;20252;-85
2022/06/19 01:31:16;;;;;;;1.60;1.50;;;22.50;61.20;23.10;96191.00;;;;5095613;28;20722;-84
2022/06/19 01:33:48;;;;;;;2.40;1.40;;;22.50;61.20;23.10;96184.00;;;;5095657;28;20175;-85
2022/06/19 01:36:20;;;;;;;2.70;1.40;;;22.50;61.30;23.00;96180.00;;;;5095085;28;20857;-85
2022/06/19 01:38:51;;;;;;;1.97;1.77;;;22.40;61.30;23.00;96178.00;;;;5094800;28;20227;-85
2022/06/19 01:41:28;;;;;;;2.20;1.50;;;22.40;61.20;23.00;96167.00;;;;5094838;28;20248;-85
2022/06/19 01:43:55;;;;;;;1.50;1.40;;;22.40;61.60;22.90;96156.00;;;;5109875;22;20261;-83
2022/06/19 01:46:26;;;;;;;2.30;1.40;;;22.30;61.40;22.90;96148.00;;;;5096610;28;20196;-83
2022/06/19 01:48:54;;;;;;;2.20;1.40;;;22.30;61.50;22.90;96146.00;;;;5090662;28;20202;-83
2022/06/19 01:51:22;;;;;;;3.33;1.60;;;22.30;61.40;22.80;96138.00;;;;5096271;28;20196;-83
2022/06/19 01:53:57;;;;;;;1.50;1.40;;;22.20;61.40;22.80;96142.00;;;;5090768;28;20257;-83
2022/06/19 01:56:26;;;;;;;2.50;1.37;;;22.20;61.60;22.80;96132.00;;;;5095017;28;20193;-83
2022/06/19 01:59:05;;;;;;;2.60;1.57;;;22.20;61.60;22.70;96124.00;;;;5098131;28;20219;-83
2022/06/19 02:01:36;;;;;;;2.47;1.50;;;22.20;61.70;22.70;96119.00;;;;5106318;28;20208;-83
2022/06/19 02:04:07;;;;;;;1.40;1.30;;;22.10;61.60;22.60;96114.00;;;;5105271;28;20215;-83
2022/06/19 02:06:41;;;;;;;1.80;1.20;;;22.10;61.70;22.60;96112.00;;;;5089955;28;20215;-83
2022/06/19 02:09:09;;;;;;;4.63;1.50;;;22.10;61.70;22.60;96107.00;;;;5091722;28;20250;-83
2022/06/19 02:11:37;;;;;;;3.60;1.20;;;22.00;61.80;22.60;96106.00;;;;5076214;28;20259;-83
2022/06/19 02:14:08;;;;;;;2.27;1.57;;;22.00;62.00;22.50;96108.00;;;;5092233;28;20233;-83
2022/06/19 02:16:40;;;;;;;1.60;1.50;;;21.90;62.00;22.50;96098.00;;;;5094811;28;20668;-83
2022/06/19 02:19:07;;;;;;;2.17;1.37;;;21.90;62.00;22.40;96103.00;;;;5092699;28;20640;-83
2022/06/19 02:21:41;;;;;;;2.77;1.57;;;21.90;62.00;22.40;96105.00;;;;5087364;28;20230;-83
2022/06/19 02:24:13;;;;;;;3.33;1.67;;;21.80;62.40;22.30;96114.00;;;;5090389;28;20608;-83
2022/06/19 02:26:44;;;;;;;2.00;1.90;;;21.80;62.40;22.30;96104.00;;;;5094804;28;20215;-83
2022/06/19 02:29:16;;;;;;;1.60;1.50;;;21.80;62.40;22.30;96113.00;;;;5095373;28;20237;-83
2022/06/19 02:31:48;;;;;;;1.80;1.43;;;21.70;62.60;22.30;96117.00;;;;5093179;28;20680;-83
2022/06/19 02:34:25;;;;;;;2.43;1.87;;;21.70;62.70;22.20;96109.00;;;;5093676;28;20573;-83
2022/06/19 02:36:57;;;;;;;1.57;1.47;;;21.70;63.00;22.20;96113.00;;;;5080976;28;20222;-83
2022/06/19 02:39:38;;;;;;;3.03;1.80;;;21.70;62.90;22.20;96123.00;;;;5101445;28;20198;-84
2022/06/19 02:42:28;;;;;;;2.17;1.87;;;21.60;63.10;22.20;96113.00;;;;5097416;28;20303;-84
2022/06/19 02:44:58;;;;;;;2.87;1.87;;;21.60;63.20;22.20;96109.00;;;;5093527;28;20286;-83
2022/06/19 02:47:29;;;;;;;2.80;1.60;;;21.60;63.00;22.20;96104.00;;;;5094797;28;21898;-82
2022/06/19 02:49:56;;;;;;;1.80;1.70;;;21.60;63.30;22.20;96106.00;;;;5094090;28;20192;-83
2022/06/19 02:52:24;;;;;;;4.63;1.87;;;21.60;63.40;22.10;96110.00;;;;5094124;28;20215;-82
2022/06/19 02:54:51;;;;;;;2.83;1.67;;;21.60;63.40;22.10;96114.00;;;;5085038;28;20278;-83
2022/06/19 02:57:20;;;;;;;1.57;1.47;;;21.60;63.50;22.10;96097.00;;;;5088994;28;20233;-83
2022/06/19 02:59:47;;;;;;;2.70;2.10;;;21.60;63.50;22.10;96091.00;;;;5093687;28;20468;-82
2022/06/19 03:02:15;;;;;;;4.23;1.60;;;21.50;63.70;22.10;96076.00;;;;5098917;28;20254;-83
2022/06/19 03:04:46;;;;;;;2.50;1.60;;;21.50;63.80;22.10;96069.00;;;;5106309;28;20238;-83
2022/06/19 03:07:14;;;;;;;2.13;1.90;;;21.50;64.10;22.00;96072.00;;;;5085717;28;20200;-83
2022/06/19 03:09:41;;;;;;;2.47;1.87;;;21.50;64.00;22.00;96074.00;;;;5091781;28;20199;-83
2022/06/19 03:12:11;;;;;;;3.23;1.90;;;21.50;64.10;22.00;96069.00;;;;5092439;28;20231;-83
2022/06/19 03:14:39;;;;;;;1.90;1.80;;;21.50;64.10;22.00;96069.00;;;;5093748;28;20209;-83
2022/06/19 03:17:07;;;;;;;2.27;1.50;;;21.40;64.10;21.90;96074.00;;;;5092898;28;20223;-83
2022/06/19 03:19:35;;;;;;;1.47;1.37;;;21.40;64.10;21.90;96077.00;;;;5093747;28;20293;-83
2022/06/19 03:22:02;;;;;;;1.67;1.57;;;21.40;64.10;21.90;96077.00;;;;5093051;28;20231;-83
2022/06/19 03:24:29;;;;;;;1.53;1.43;;;21.40;64.10;21.90;96075.00;;;;5089885;28;20616;-83
2022/06/19 03:26:56;;;;;;;2.77;1.57;;;21.40;64.30;21.80;96071.00;;;;5084992;28;20222;-83
2022/06/19 03:29:23;;;;;;;1.43;1.30;;;21.30;64.30;21.80;96076.00;;;;5093938;28;20197;-83
2022/06/19 03:31:52;;;;;;;1.83;1.40;;;21.30;64.40;21.80;96075.00;;;;5092180;28;20312;-83
2022/06/19 03:34:19;;;;;;;3.27;1.40;;;21.30;64.50;21.80;96078.00;;;;5089484;28;20242;-83
2022/06/19 03:36:46;;;;;;;1.50;1.40;;;21.30;64.50;21.80;96078.00;;;;5085866;28;20238;-82
2022/06/19 03:39:14;;;;;;;2.17;1.50;;;21.30;64.50;21.80;96076.00;;;;5092197;28;20256;-83
2022/06/19 03:41:41;;;;;;;1.47;1.37;;;21.30;64.60;21.80;96078.00;;;;5092768;28;20261;-83
2022/06/19 03:44:08;;;;;;;1.57;1.47;;;21.30;64.70;21.80;96077.00;;;;5093336;28;20231;-82
2022/06/19 03:46:35;;;;;;;2.03;1.73;;;21.20;64.70;21.80;96074.00;;;;5092106;28;20593;-83
2022/06/19 03:49:05;;;;;;;1.63;1.53;;;21.20;64.70;21.80;96079.00;;;;5092985;28;20278;-83
2022/06/19 03:51:32;;;;;;;2.10;1.63;;;21.20;64.80;21.80;96080.00;;;;5091358;28;20213;-83
2022/06/19 03:53:59;;;;;;;2.93;1.63;;;21.20;64.80;21.80;96085.00;;;;5081333;28;20586;-83
2022/06/19 03:56:29;;;;;;;1.77;1.50;;;21.20;64.90;21.80;96084.00;;;;5092677;28;20633;-83
2022/06/19 03:58:57;;;;;;;1.97;1.50;;;21.20;65.00;21.80;96088.00;;;;5086213;28;20559;-83
2022/06/19 04:01:28;;;;;;;1.60;1.50;;;21.20;65.00;21.80;96084.00;;;;5093362;28;20280;-83
2022/06/19 04:03:57;;;;;;;2.13;1.60;;;21.20;65.20;21.80;96092.00;;;;5093663;28;20242;-83
2022/06/19 04:06:29;;;;;;;2.90;1.57;;;21.20;65.30;21.80;96101.00;;;;5107577;28;20286;-83
2022/06/19 04:08:58;;;;;;;3.63;1.87;;;21.20;65.50;21.80;96094.00;;;;5089820;28;20277;-82
2022/06/19 04:11:28;;;;;;;5.13;1.50;;;21.20;66.30;21.80;96095.00;;;;5091661;28;20706;-83
2022/06/19 04:13:56;;;;;;;1.70;1.60;;;21.20;65.90;21.80;96090.00;;;;5094574;28;20715;-83
2022/06/19 04:16:27;;;;;;;1.60;1.50;;;21.20;66.10;21.80;96080.00;;;;5092393;28;20204;-82
2022/06/19 04:18:57;;;;;;;1.97;1.80;;;21.20;66.20;21.80;96076.00;;;;5095640;28;20260;-82
2022/06/19 04:21:28;;;;;;;1.70;1.53;;;21.20;66.40;21.80;96078.00;;;;5095378;28;20191;-83
2022/06/19 04:24:00;;;;;;;1.70;1.60;;;21.30;66.60;21.90;96086.00;;;;5095740;28;20246;-83
2022/06/19 04:26:31;;;;;;;3.57;1.87;;;21.30;66.50;21.90;96083.00;;;;5095394;28;20247;-82
2022/06/19 04:28:59;;;;;;;2.17;1.77;;;21.30;66.60;21.90;96084.00;;;;5095629;28;20229;-82
2022/06/19 04:31:26;;;;;;;2.10;1.70;;;21.30;66.70;21.90;96084.00;;;;5090559;28;20219;-82
2022/06/19 04:33:54;;;;;;;4.30;1.60;;;21.30;66.80;21.90;96084.00;;;;5095626;28;20227;-83
2022/06/19 04:36:26;;;;;;;2.40;1.50;;;21.30;66.90;22.00;96084.00;;;;5082668;28;20214;-80
2022/06/19 04:38:56;;;;;;;1.73;1.63;;;21.30;67.00;22.00;96073.00;;;;5079488;28;20195;-80
2022/06/19 04:41:26;;;;;;;3.03;1.80;;;21.30;67.00;22.10;96078.00;;;;5097412;28;20674;-80
2022/06/19 04:43:54;;;;;;;1.87;1.50;;;21.40;67.10;22.10;96078.00;;;;5091908;28;20716;-80
2022/06/19 04:46:22;;;;;;;1.80;1.70;;;21.40;67.20;22.10;96075.00;;;;5097525;28;20231;-80
2022/06/19 04:48:50;;;;;;;2.10;2.00;;;21.40;67.20;22.20;96078.00;;;;5109120;28;20198;-80
2022/06/19 04:51:17;;;;;;;2.33;1.70;;;21.50;67.30;22.20;96080.00;;;;5118146;28;20195;-80
2022/06/19 04:53:47;;;;;;;2.03;1.73;;;21.50;67.30;22.30;96080.00;;;;5098905;28;20254;-80
2022/06/19 04:56:18;;;;;;;2.50;2.00;;;21.50;67.50;22.30;96089.00;;;;5097139;28;20259;-80
2022/06/19 04:58:45;;;;;;;2.07;1.70;;;21.50;67.50;22.30;96092.00;;;;5083881;28;20225;-80
2022/06/19 05:01:21;;;;;;;2.30;1.90;;;21.60;67.60;22.40;96090.00;;;;5089251;28;20643;-80
2022/06/19 05:03:48;;;;;;;3.00;2.00;;;21.60;67.90;22.40;96085.00;;;;5089056;28;20255;-80
2022/06/19 05:06:16;;;;;;;2.13;1.90;;;21.60;67.70;22.40;96089.00;;;;5098096;28;20283;-80
2022/06/19 05:08:43;;;;;;;2.90;2.03;;;21.70;67.60;22.50;96088.00;;;;5083805;28;20188;-80
2022/06/19 05:11:13;;;;;;;3.00;2.17;;;21.70;67.70;22.50;96080.00;;;;5098383;28;20240;-80
2022/06/19 05:13:41;;;;;;;2.10;1.90;;;21.70;67.80;22.50;96078.00;;;;5113926;28;20303;-80
2022/06/19 05:16:13;;;;;;;3.33;1.57;;;21.70;67.60;22.60;96078.00;;;;5118352;28;20702;-80
2022/06/19 05:18:41;;;;;;;3.10;2.40;;;21.80;67.50;22.60;96077.00;;;;5115483;28;20221;-81
2022/06/19 05:21:09;;;;;;;3.93;2.20;;;21.80;67.20;22.70;96074.00;;;;5115451;28;20263;-81
2022/06/19 05:23:39;;;;;;;1.83;1.63;;;21.90;67.00;22.70;96083.00;;;;5108667;28;20234;-80
2022/06/19 05:26:09;;;;;;;3.73;1.97;;;21.90;66.50;22.80;96089.00;;;;5104176;28;20196;-80
2022/06/19 05:28:38;;;;;;;2.13;1.67;;;21.90;66.40;22.80;96084.00;;;;5103535;28;20196;-80
2022/06/19 05:31:05;;;;;;;3.03;1.87;;;22.00;66.30;22.90;96078.00;;;;5103046;28;20286;-80
2022/06/19 05:33:34;;;;;;;2.00;1.80;;;22.00;66.60;23.00;96073.00;;;;5117223;28;20238;-80
2022/06/19 05:36:01;;;;;;;2.73;1.93;;;22.10;67.10;23.00;96083.00;;;;5085288;28;20621;-80
2022/06/19 05:38:29;;;;;;;2.33;1.73;;;22.20;67.10;23.10;96076.00;;;;5090928;28;20231;-80
2022/06/19 05:40:59;;;;;;;2.63;1.90;;;22.20;66.90;23.10;96065.00;;;;5101252;28;20621;-80
2022/06/19 05:43:30;;;;;;;3.40;1.93;;;22.30;67.00;23.20;96078.00;;;;5103755;28;20253;-80
2022/06/19 05:46:02;;;;;;;2.23;1.63;;;22.40;67.20;23.30;96075.00;;;;5101737;28;20742;-80
2022/06/19 05:48:32;;;;;;;3.80;2.07;;;22.40;67.20;23.30;96084.00;;;;5103136;28;20196;-80
2022/06/19 05:51:02;;;;;;;2.63;2.43;;;22.50;67.20;23.40;96075.00;;;;5101212;28;20544;-80
2022/06/19 05:53:32;;;;;;;2.40;2.20;;;22.50;67.20;23.50;96081.00;;;;5091257;28;20268;-80
2022/06/19 05:55:59;;;;;;;3.43;2.30;;;22.60;67.30;23.50;96065.00;;;;5086155;28;20270;-79
2022/06/19 05:58:27;;;;;;;4.33;2.23;;;22.70;67.20;23.60;96067.00;;;;5098681;28;20198;-80
2022/06/19 06:00:54;;;;;;;2.27;1.90;;;22.70;67.30;23.70;96071.00;;;;5087620;28;20275;-80
2022/06/19 06:03:25;;;;;;;3.20;1.90;;;22.80;67.50;23.70;96069.00;;;;5099719;28;20254;-79
2022/06/19 06:05:53;;;;;;;2.20;2.00;;;22.90;67.80;23.80;96064.00;;;;5093263;28;20720;-80
2022/06/19 06:08:21;;;;;;;4.00;2.20;;;22.90;67.70;23.90;96065.00;;;;5099889;28;20192;-80
2022/06/19 06:10:50;;;;;;;2.80;1.90;;;23.00;67.90;24.00;96070.00;;;;5083609;28;20194;-80
2022/06/19 06:13:18;;;;;;;3.17;1.87;;;23.10;67.90;24.10;96066.00;;;;5082999;28;20722;-79
2022/06/19 06:15:46;;;;;;;4.93;2.20;;;23.20;68.10;24.10;96059.00;;;;5091632;28;20246;-79
2022/06/19 06:18:14;;;;;;;2.30;2.10;;;23.20;68.30;24.20;96073.00;;;;5096246;28;20288;-79
2022/06/19 06:20:43;;;;;;;4.20;2.10;;;23.30;67.80;24.30;96072.00;;;;5089711;28;20573;-79
2022/06/19 06:23:11;;;;;;;4.43;2.33;;;23.40;67.60;24.30;96080.00;;;;5078435;28;20254;-79
2022/06/19 06:25:42;;;;;;;3.57;2.20;;;23.40;67.20;24.40;96076.00;;;;5078337;28;20228;-80
2022/06/19 06:28:09;;;;;;;5.33;2.40;;;23.50;66.80;24.50;96079.00;;;;5096905;28;20203;-79
2022/06/19 06:30:36;;;;;;;3.53;2.03;;;23.60;66.50;24.50;96079.00;;;;5085320;28;20244;-79
2022/06/19 06:33:05;;;;;;;2.47;2.07;;;23.70;66.50;24.60;96084.00;;;;5100381;28;20265;-79
2022/06/19 06:35:33;;;;;;;2.87;2.10;;;23.70;66.60;24.70;96096.00;;;;5097885;28;20206;-80
2022/06/19 06:38:02;;;;;;;3.03;2.50;;;23.80;66.30;24.80;96083.00;;;;5092422;28;20656;-79
2022/06/19 06:40:38;;;;;;;4.33;2.13;;;23.90;66.30;24.90;96091.00;;;;5096655;28;20730;-79
2022/06/19 06:43:05;;;;;;;3.63;1.97;;;24.00;66.60;25.00;96089.00;;;;5098580;28;20384;-79
2022/06/19 06:45:33;;;;;;;2.47;1.90;;;24.10;66.10;25.00;96088.00;;;;5095107;28;20226;-79
2022/06/19 06:48:00;;;;;;;3.30;2.13;;;24.10;65.70;25.10;96090.00;;;;5091175;28;20226;-79
2022/06/19 06:50:27;;;;;;;8.00;2.60;;;24.30;65.40;25.30;96092.00;;;;5083970;28;20231;-79
2022/06/19 06:52:54;;;;;;;3.77;1.83;;;24.30;64.60;25.40;96091.00;;;;5092925;28;20251;-79
2022/06/19 06:55:23;;;;;;;5.37;2.50;;;24.40;64.50;25.50;96084.00;;;;5087060;28;20236;-79
2022/06/19 06:57:50;;;;;;;4.33;1.97;;;24.60;63.70;25.60;96090.00;;;;5094072;28;20198;-80
2022/06/19 07:00:21;;;;;;;15.97;2.30;;;24.70;63.90;25.80;96084.00;;;;5087014;28;20278;-79
2022/06/19 07:02:49;;;;;;;2.47;1.70;;;24.80;64.10;26.00;96080.00;;;;5099777;28;20262;-79
2022/06/19 07:05:18;;;;;;;3.70;1.70;;;25.00;64.60;26.20;96084.00;;;;5111922;28;21684;-79
2022/06/19 07:07:46;;;;;;;2.27;1.70;;;25.10;64.90;26.30;96080.00;;;;5100108;28;20211;-79
2022/06/19 07:10:13;;;;;;;4.10;2.57;;;25.30;65.10;26.60;96082.00;;;;5100903;28;20230;-79
2022/06/19 07:12:41;;;;;;;4.00;1.77;;;25.40;64.60;26.80;96076.00;;;;5100461;28;20223;-80
2022/06/19 07:15:12;;;;;;;3.97;1.87;;;25.60;64.40;27.00;96080.00;;;;5100898;28;20191;-80
2022/06/19 07:17:40;;;;;;;3.23;2.10;;;25.80;64.40;27.20;96082.00;;;;5100707;28;20203;-79
2022/06/19 07:20:09;;;;;;;3.17;1.77;;;26.00;63.60;27.40;96087.00;;;;5102669;28;20194;-79
2022/06/19 07:22:37;;;;;;;3.63;2.10;;;26.20;62.90;27.70;96089.00;;;;5105117;28;20228;-80
2022/06/19 07:25:06;;;;;;;3.47;1.93;;;26.40;62.90;27.90;96090.00;;;;5101581;28;20223;-80
2022/06/19 07:27:33;;;;;;;2.83;2.20;;;26.60;63.10;28.10;96087.00;;;;5098266;28;20287;-79
2022/06/19 07:30:02;;;;;;;3.05;2.20;;;26.80;62.90;28.40;96084.00;;;;5095815;28;20230;-79
2022/06/19 07:32:29;;;;;;;5.25;1.95;;;27.10;62.80;28.60;96090.00;;;;5099805;28;20272;-79
2022/06/19 07:34:57;;;;;;;5.20;2.10;;;27.20;61.90;28.80;96093.00;;;;5094940;28;20637;-79
2022/06/19 07:37:24;;;;;;;5.68;1.95;;;27.50;61.70;29.00;96084.00;;;;5092231;28;20264;-79
2022/06/19 07:39:51;;;;;;;6.53;2.22;;;27.60;60.60;29.20;96084.00;;;;5092389;28;20202;-79
2022/06/19 07:42:18;;;;;;;3.67;1.70;;;27.90;59.80;29.40;96089.00;;;;5092412;28;20619;-79
2022/06/19 07:44:45;;;;;;;5.55;2.00;;;28.00;60.00;29.60;96100.00;;;;5094815;28;20235;-79
2022/06/19 07:50:10;;;;;;;4.43;1.90;;;28.40;59.60;30.00;96102.00;;;;5093685;28;20199;-79
2022/06/19 07:52:38;;;;;;;4.13;1.88;;;28.60;58.90;30.20;96102.00;;;;5100792;28;20222;-79
2022/06/19 07:55:09;;;;;;;2.80;1.83;;;28.80;58.60;30.40;96093.00;;;;5111140;22;20230;-82
2022/06/19 07:57:37;;;;;;;3.33;1.70;;;29.00;58.80;30.60;96099.00;;;;5091047;28;20261;-82
2022/06/19 08:00:06;;;;;;;6.28;2.05;;;29.10;58.50;30.80;96088.00;;;;5094650;28;20234;-82
2022/06/19 08:02:36;;;;;;;4.10;1.83;;;29.30;57.70;31.00;96082.00;;;;5092107;28;20195;-83
2022/06/19 08:05:05;;;;;;;3.92;2.10;;;29.50;57.80;31.10;96093.00;;;;5073806;28;20223;-83
2022/06/19 08:07:33;;;;;;;3.72;1.73;;;29.60;58.00;31.30;96086.00;;;;5071908;28;20231;-83
2022/06/19 08:10:00;;;;;;;5.47;1.88;;;29.80;56.80;31.40;96097.00;;;;5073090;28;20224;-83
2022/06/19 08:12:28;;;;;;;5.55;2.35;;;29.90;57.10;31.60;96097.00;;;;5074022;28;20195;-83
2022/06/19 08:14:55;;;;;;;4.20;1.83;;;30.10;56.80;31.80;96091.00;;;;5067142;28;20216;-82
2022/06/19 08:17:22;;;;;;;4.43;2.00;;;30.20;56.50;32.00;96094.00;;;;5069784;28;20223;-83
2022/06/19 08:19:50;;;;;;;3.35;1.70;;;30.40;56.30;32.30;96095.00;;;;5072524;28;20601;-84
2022/06/19 08:22:17;;;;;;;4.55;2.20;;;30.60;56.40;32.50;96096.00;;;;5073164;28;20231;-84
2022/06/19 08:24:44;;;;;;;4.90;2.25;;;30.70;55.70;32.70;96100.00;;;;5073350;28;20219;-83
2022/06/19 08:27:12;;;;;;;5.05;1.90;;;31.00;56.10;33.00;96101.00;;;;5072592;28;20228;-83
2022/06/19 08:29:39;;;;;;;5.25;2.20;;;31.10;56.00;33.20;96102.00;;;;5072317;28;20196;-84
2022/06/19 08:32:07;;;;;;;9.05;2.55;;;31.30;54.70;33.40;96103.00;;;;5070935;28;20241;-84
2022/06/19 08:34:34;;;;;;;4.15;1.88;;;31.50;54.30;33.60;96106.00;;;;5071874;28;20226;-83
2022/06/19 08:37:07;;;;;;;4.55;2.25;;;31.70;54.10;33.80;96102.00;;;;5071474;28;20195;-83
2022/06/19 08:39:35;;;;;;;5.47;1.75;;;31.90;53.50;34.10;96099.00;;;;5073251;28;20220;-84
2022/06/19 08:42:26;;;;;;;5.18;2.30;;;32.10;53.70;34.30;96093.00;;;;5072251;28;20220;-84
2022/06/19 08:45:26;;;;;;;5.93;2.17;;;32.40;53.30;34.60;96098.00;;;;5067313;28;20259;-84
2022/06/19 08:48:23;;;;;;;7.75;2.75;;;32.60;52.70;34.80;96098.00;;;;5072969;28;20235;-84
2022/06/19 08:51:01;;;;;;;8.55;2.45;;;32.80;52.70;35.10;96098.00;;;;5049389;28;20319;-84
2022/06/19 08:54:07;;;;;;;3.35;1.70;;;33.00;52.00;35.30;96104.00;;;;5079067;28;20276;-83
2022/06/19 08:56:45;;;;;;;6.25;2.28;;;33.30;51.70;35.60;96096.00;;;;5078992;28;20199;-83
2022/06/19 08:59:27;;;;;;;5.43;2.50;;;33.50;51.30;35.80;96092.00;;;;5080528;28;20279;-83
2022/06/19 09:02:08;;;;;;;3.38;2.47;;;33.70;50.90;36.00;96098.00;;;;5072690;28;20228;-84
2022/06/19 09:07:48;;;;;;;5.20;1.95;;;34.00;51.00;36.40;96103.00;;;;5076438;28;20210;-84
2022/06/19 09:10:40;;;;;;;3.13;1.90;;;34.30;50.40;36.70;96100.00;;;;5076089;28;20226;-84
2022/06/19 09:13:44;;;;;;;3.53;2.20;;;34.50;50.20;36.90;96101.00;;;;5076966;28;20392;-84
2022/06/19 09:16:24;;;;;;;5.60;2.17;;;34.70;49.50;37.20;96096.00;;;;5072327;28;20188;-84
2022/06/19 09:19:03;;;;;;;6.00;1.85;;;35.00;49.30;37.40;96104.00;;;;5072218;28;20839;-84
2022/06/19 09:21:47;;;;;;;5.70;2.10;;;35.20;48.70;37.60;96096.00;;;;5073512;28;20230;-84
2022/06/19 09:24:46;;;;;;;3.22;1.63;;;35.40;48.70;37.80;96100.00;;;;5075170;28;20247;-84
2022/06/19 09:27:21;;;;;;;5.55;2.33;;;35.60;47.80;38.00;96106.00;;;;5074808;28;20188;-84
2022/06/19 09:29:58;;;;;;;8.38;2.50;;;35.80;47.50;38.10;96103.00;;;;5072190;28;20219;-84
2022/06/19 09:32:34;;;;;;;5.43;2.20;;;36.00;47.00;38.30;96102.00;;;;5065506;28;20677;-84
2022/06/19 09:35:08;;;;;;;6.13;2.45;;;36.20;46.60;38.40;96100.00;;;;5074115;28;20246;-84
2022/06/19 09:37:46;;;;;;;4.50;1.95;;;36.40;46.70;38.60;96103.00;;;;5074660;28;20208;-83
2022/06/19 09:40:21;;;;;;;4.72;2.30;;;36.60;45.90;38.80;96094.00;;;;5055165;28;20236;-84
2022/06/19 09:42:56;;;;;;;6.50;2.45;;;36.80;46.20;38.90;96089.00;;;;5072513;28;20278;-84
2022/06/19 09:45:29;;;;;;;5.45;2.42;;;37.00;45.70;39.10;96098.00;;;;5070919;28;20274;-84
2022/06/19 09:48:04;;;;;;;3.53;2.00;;;37.20;45.30;39.20;96098.00;;;;5073105;28;20232;-84
2022/06/19 09:50:40;;;;;;;5.45;2.28;;;37.40;45.00;39.30;96098.00;;;;5082479;28;20638;-84
2022/06/19 09:53:14;;;;;;;7.55;2.80;;;37.50;44.50;39.40;96103.00;;;;5075672;28;20243;-84
2022/06/19 09:55:47;;;;;;;7.88;2.60;;;37.70;44.20;39.60;96098.00;;;;5069552;28;20230;-84
2022/06/19 09:58:21;;;;;;;7.22;2.35;;;37.90;43.20;39.70;96091.00;;;;5074734;28;20266;-84
2022/06/19 10:00:55;;;;;;;6.70;2.33;;;38.00;43.30;39.80;96098.00;;;;5073584;28;20195;-84
2022/06/19 10:03:31;;;;;;;4.35;2.45;;;38.10;43.40;40.00;96089.00;;;;5073937;28;20232;-84
2022/06/19 10:06:04;;;;;;;3.30;1.90;;;38.30;43.30;40.20;96096.00;;;;5072751;28;20285;-84
2022/06/19 10:08:40;;;;;;;4.28;2.20;;;38.40;42.80;40.30;96083.00;;;;5072500;28;20206;-83
2022/06/19 10:11:14;;;;;;;8.05;2.50;;;38.60;42.30;40.50;96083.00;;;;5075135;28;20200;-83
2022/06/19 10:13:56;;;;;;;4.75;2.10;;;38.70;41.90;40.60;96078.00;;;;5079929;28;20227;-84
2022/06/19 10:16:36;;;;;;;7.53;2.38;;;38.90;41.20;40.70;96081.00;;;;5078630;28;20223;-83
2022/06/19 10:19:15;;;;;;;4.72;2.50;;;39.00;41.30;40.90;96073.00;;;;5079857;28;20237;-84
2022/06/19 10:24:56;;;;;;;5.82;2.38;;;39.30;41.50;41.00;96078.00;;;;5077196;28;20316;-83
2022/06/19 10:27:39;;;;;;;4.25;2.42;;;39.40;41.00;41.10;96078.00;;;;5074599;28;20314;-84
2022/06/19 10:30:15;;;;;;;2.55;2.08;;;39.60;40.10;41.10;96073.00;;;;5084212;28;20203;-84
2022/06/19 10:33:14;;;;;;;6.50;2.40;;;39.70;41.10;41.20;96078.00;;;;5083888;28;20238;-84
2022/06/19 10:35:49;;;;;;;6.18;2.42;;;39.90;39.90;41.20;96078.00;;;;5084719;28;20215;-81
2022/06/19 10:38:39;;;;;;;4.90;1.98;;;40.00;39.60;41.20;96073.00;;;;5085276;28;20275;-81
2022/06/19 10:44:27;;;;;;;4.50;2.15;;;40.30;37.90;41.10;96075.00;;;;5071891;28;20312;-81
2022/06/19 10:47:11;;;;;;;2.70;2.10;;;40.40;38.80;41.00;96075.00;;;;5073633;28;20196;-81
2022/06/19 10:49:55;;;;;;;8.63;2.63;;;40.40;39.20;41.00;96072.00;;;;5072755;28;20195;-81
2022/06/19 10:52:28;;;;;;;3.53;2.15;;;40.50;39.10;41.10;96064.00;;;;5074621;28;20618;-81
2022/06/19 10:55:21;;;;;;;3.75;2.53;;;40.60;38.40;41.10;96072.00;;;;5073593;28;20340;-81
2022/06/19 10:58:12;;;;;;;5.80;2.50;;;40.60;38.00;41.00;96067.00;;;;5073837;28;20271;-81
2022/06/19 11:00:40;;;;;;;6.30;2.40;;;40.50;38.50;40.90;96060.00;;;;5075483;28;20206;-81
2022/06/19 11:06:14;;;;;;;5.55;2.60;;;40.20;38.40;40.60;96054.00;;;;5069196;28;20211;-80
2022/06/19 11:08:47;;;;;;;4.43;2.50;;;40.10;39.00;40.40;96052.00;;;;5070249;28;20689;-81
2022/06/19 11:11:18;;;;;;;5.63;2.47;;;39.90;38.70;40.20;96044.00;;;;5071838;28;20192;-81
2022/06/19 11:14:07;;;;;;;5.90;2.88;;;39.70;38.50;40.00;96045.00;;;;5072739;28;20259;-81
2022/06/19 11:16:51;;;;;;;7.03;2.92;;;39.50;38.20;39.80;96035.00;;;;5065947;28;20196;-81
2022/06/19 11:19:34;;;;;;;6.80;2.30;;;39.20;38.60;39.60;96033.00;;;;5072008;28;20245;-81
2022/06/19 11:22:05;;;;;;;5.10;2.50;;;39.00;38.60;39.40;96039.00;;;;5073941;28;20283;-81
2022/06/19 11:24:37;;;;;;;3.85;3.00;;;38.80;38.50;39.20;96037.00;;;;5069970;28;20266;-81
2022/06/19 11:27:05;;;;;;;7.65;3.03;;;38.60;38.60;39.00;96036.00;;;;5074820;28;20184;-81
2022/06/19 11:29:33;;;;;;;5.60;2.90;;;38.40;38.70;38.90;96033.00;;;;5071897;28;20200;-80
2022/06/19 11:32:13;;;;;;;4.82;2.47;;;38.20;39.60;38.70;96037.00;;;;5073854;28;20196;-81